sensor_id;sensor_type;location;lat;lon;timestamp;temperature;humidity
12841;DHT22;6487;48.626;12.486;2023-07-29T00:00:09;19.30;99.90
12841;DHT22;6487;48.626;12.486;2023-07-29T00:02:40;19.30;99.90
12841;DHT22;6487;48.626;12.486;2023-07-29T00:05:09;19.30;99.90
12841;DHT22;6487;48.626;12.486;2023-07-29T00:07:37;19.30;99.90
12841;DHT22;6487;48.626;12.486;2023-07-29T00:10:07;19.30;99.90
12841;DHT22;6487;48.626;12.486;2023-07-29T00:12:37;19.20;99.90
12841;DHT22;6487;48.626;12.486;2023-07-29T00:15:07;19.20;99.90
12841;DHT22;6487;48.626;12.486;2023-07-29T00:17:38;19.20;99.90
12841;DHT22;6487;48.626;12.486;2023-07-29T00:20:07;19.10;99.90
12841;DHT22;6487;48.626;12.486;2023-07-29T00:22:36;19.00;99.90
12841;DHT22;6487;48.626;12.486;2023-07-29T00:25:05;18.90;99.90
12841;DHT22;6487;48.626;12.486;2023-07-29T00:27:34;18.90;99.90
12841;DHT22;6487;48.626;12.486;2023-07-29T00:30:04;18.80;99.90
12841;DHT22;6487;48.626;12.486;2023-07-29T00:32:37;18.80;99.90
12841;DHT22;6487;48.626;12.486;2023-07-29T00:35:06;18.80;99.90
12841;DHT22;6487;48.626;12.486;2023-07-29T00:37:35;18.80;99.90
12841;DHT22;6487;48.626;12.486;2023-07-29T00:40:12;18.90;99.90
12841;DHT22;6487;48.626;12.486;2023-07-29T00:42:43;18.90;99.90
12841;DHT22;6487;48.626;12.486;2023-07-29T00:45:13;18.90;99.90
12841;DHT22;6487;48.626;12.486;2023-07-29T00:47:42;18.90;99.90
12841;DHT22;6487;48.626;12.486;2023-07-29T00:50:12;18.90;99.90
12841;DHT22;6487;48.626;12.486;2023-07-29T00:52:43;18.90;99.90
12841;DHT22;6487;48.626;12.486;2023-07-29T00:55:14;18.90;99.90
12841;DHT22;6487;48.626;12.486;2023-07-29T00:57:46;18.90;99.90
12841;DHT22;6487;48.626;12.486;2023-07-29T01:00:17;18.80;99.90
12841;DHT22;6487;48.626;12.486;2023-07-29T01:02:46;18.90;99.90
12841;DHT22;6487;48.626;12.486;2023-07-29T01:05:16;18.90;99.90
12841;DHT22;6487;48.626;12.486;2023-07-29T01:07:50;18.90;99.90
12841;DHT22;6487;48.626;12.486;2023-07-29T01:10:30;18.80;99.90
12841;DHT22;6487;48.626;12.486;2023-07-29T01:13:09;18.80;99.90
12841;DHT22;6487;48.626;12.486;2023-07-29T01:15:45;18.90;99.90
12841;DHT22;6487;48.626;12.486;2023-07-29T01:18:20;18.90;99.90
12841;DHT22;6487;48.626;12.486;2023-07-29T01:20:58;18.80;99.90
12841;DHT22;6487;48.626;12.486;2023-07-29T01:23:31;18.90;99.90
12841;DHT22;6487;48.626;12.486;2023-07-29T01:26:00;18.90;99.90
12841;DHT22;6487;48.626;12.486;2023-07-29T01:28:29;18.90;99.90
12841;DHT22;6487;48.626;12.486;2023-07-29T01:31:02;18.80;99.90
12841;DHT22;6487;48.626;12.486;2023-07-29T01:33:57;18.80;99.90
12841;DHT22;6487;48.626;12.486;2023-07-29T01:36:28;18.80;99.90
12841;DHT22;6487;48.626;12.486;2023-07-29T01:38:59;18.70;99.90
12841;DHT22;6487;48.626;12.486;2023-07-29T01:41:31;18.80;99.90
12841;DHT22;6487;48.626;12.486;2023-07-29T01:44:00;18.80;99.90
12841;DHT22;6487;48.626;12.486;2023-07-29T01:46:28;18.80;99.90
12841;DHT22;6487;48.626;12.486;2023-07-29T01:48:57;18.80;99.90
12841;DHT22;6487;48.626;12.486;2023-07-29T01:51:25;18.80;99.90
12841;DHT22;6487;48.626;12.486;2023-07-29T01:53:54;18.80;99.90
12841;DHT22;6487;48.626;12.486;2023-07-29T01:56:27;18.80;99.90
12841;DHT22;6487;48.626;12.486;2023-07-29T01:58:58;18.80;99.90
12841;DHT22;6487;48.626;12.486;2023-07-29T02:01:26;18.70;99.90
12841;DHT22;6487;48.626;12.486;2023-07-29T02:03:55;18.70;99.90
12841;DHT22;6487;48.626;12.486;2023-07-29T02:06:23;18.70;99.90
12841;DHT22;6487;48.626;12.486;2023-07-29T02:08:53;18.70;99.90
12841;DHT22;6487;48.626;12.486;2023-07-29T02:11:22;18.60;99.90
12841;DHT22;6487;48.626;12.486;2023-07-29T02:13:56;18.70;99.90
12841;DHT22;6487;48.626;12.486;2023-07-29T02:16:25;18.70;99.90
12841;DHT22;6487;48.626;12.486;2023-07-29T02:18:53;18.70;99.90
12841;DHT22;6487;48.626;12.486;2023-07-29T02:21:24;18.70;99.90
12841;DHT22;6487;48.626;12.486;2023-07-29T02:23:52;18.60;99.90
12841;DHT22;6487;48.626;12.486;2023-07-29T02:26:22;18.60;99.90
12841;DHT22;6487;48.626;12.486;2023-07-29T02:28:51;18.70;99.90
12841;DHT22;6487;48.626;12.486;2023-07-29T02:31:22;18.60;99.90
12841;DHT22;6487;48.626;12.486;2023-07-29T02:33:52;18.60;99.90
12841;DHT22;6487;48.626;12.486;2023-07-29T02:36:23;18.60;99.90
12841;DHT22;6487;48.626;12.486;2023-07-29T02:38:52;18.50;99.90
12841;DHT22;6487;48.626;12.486;2023-07-29T02:41:20;18.50;99.90
12841;DHT22;6487;48.626;12.486;2023-07-29T02:43:49;18.40;99.90
12841;DHT22;6487;48.626;12.486;2023-07-29T02:46:18;18.40;99.90
12841;DHT22;6487;48.626;12.486;2023-07-29T02:48:48;18.40;99.90
12841;DHT22;6487;48.626;12.486;2023-07-29T02:51:17;18.40;99.90
12841;DHT22;6487;48.626;12.486;2023-07-29T02:53:48;18.40;99.90
12841;DHT22;6487;48.626;12.486;2023-07-29T02:56:16;18.30;99.90
12841;DHT22;6487;48.626;12.486;2023-07-29T02:58:45;18.30;99.90
12841;DHT22;6487;48.626;12.486;2023-07-29T03:01:13;18.30;99.90
12841;DHT22;6487;48.626;12.486;2023-07-29T03:03:42;18.30;99.90
12841;DHT22;6487;48.626;12.486;2023-07-29T03:06:13;18.20;99.90
12841;DHT22;6487;48.626;12.486;2023-07-29T03:08:42;18.20;99.90
12841;DHT22;6487;48.626;12.486;2023-07-29T03:11:13;18.10;99.90
12841;DHT22;6487;48.626;12.486;2023-07-29T03:13:43;18.10;99.90
12841;DHT22;6487;48.626;12.486;2023-07-29T03:16:12;18.10;99.90
12841;DHT22;6487;48.626;12.486;2023-07-29T03:18:43;17.90;99.90
12841;DHT22;6487;48.626;12.486;2023-07-29T03:21:13;17.90;99.90
12841;DHT22;6487;48.626;12.486;2023-07-29T03:23:51;17.90;99.90
12841;DHT22;6487;48.626;12.486;2023-07-29T03:26:20;17.80;99.90
12841;DHT22;6487;48.626;12.486;2023-07-29T03:28:48;17.80;99.90
12841;DHT22;6487;48.626;12.486;2023-07-29T03:31:17;17.70;99.90
12841;DHT22;6487;48.626;12.486;2023-07-29T03:33:45;17.60;99.90
12841;DHT22;6487;48.626;12.486;2023-07-29T03:36:15;17.60;99.90
12841;DHT22;6487;48.626;12.486;2023-07-29T03:38:44;17.60;99.90
12841;DHT22;6487;48.626;12.486;2023-07-29T03:41:15;17.50;99.90
12841;DHT22;6487;48.626;12.486;2023-07-29T03:43:43;17.60;99.90
12841;DHT22;6487;48.626;12.486;2023-07-29T03:46:12;17.50;99.90
12841;DHT22;6487;48.626;12.486;2023-07-29T03:48:40;17.50;99.90
12841;DHT22;6487;48.626;12.486;2023-07-29T03:51:22;17.60;99.90
12841;DHT22;6487;48.626;12.486;2023-07-29T03:53:51;17.60;99.90
12841;DHT22;6487;48.626;12.486;2023-07-29T03:56:20;17.60;99.90
12841;DHT22;6487;48.626;12.486;2023-07-29T03:58:48;17.60;99.90
12841;DHT22;6487;48.626;12.486;2023-07-29T04:01:17;17.60;99.90
12841;DHT22;6487;48.626;12.486;2023-07-29T04:03:45;17.60;99.90
12841;DHT22;6487;48.626;12.486;2023-07-29T04:06:14;17.60;99.90
12841;DHT22;6487;48.626;12.486;2023-07-29T04:08:44;17.50;99.90
12841;DHT22;6487;48.626;12.486;2023-07-29T04:11:12;17.50;99.90
12841;DHT22;6487;48.626;12.486;2023-07-29T04:13:40;17.60;99.90
12841;DHT22;6487;48.626;12.486;2023-07-29T04:16:09;17.60;99.90
12841;DHT22;6487;48.626;12.486;2023-07-29T04:18:40;17.50;99.90
12841;DHT22;6487;48.626;12.486;2023-07-29T04:21:14;17.50;99.90
12841;DHT22;6487;48.626;12.486;2023-07-29T04:23:44;17.50;99.90
12841;DHT22;6487;48.626;12.486;2023-07-29T04:26:13;17.50;99.90
12841;DHT22;6487;48.626;12.486;2023-07-29T04:28:41;17.60;99.90
12841;DHT22;6487;48.626;12.486;2023-07-29T04:31:12;17.60;99.90
12841;DHT22;6487;48.626;12.486;2023-07-29T04:33:41;17.60;99.90
12841;DHT22;6487;48.626;12.486;2023-07-29T04:36:09;17.60;99.90
12841;DHT22;6487;48.626;12.486;2023-07-29T04:38:38;17.60;99.90
12841;DHT22;6487;48.626;12.486;2023-07-29T04:41:07;17.60;99.90
12841;DHT22;6487;48.626;12.486;2023-07-29T04:43:39;17.60;99.90
12841;DHT22;6487;48.626;12.486;2023-07-29T04:46:07;17.50;99.90
12841;DHT22;6487;48.626;12.486;2023-07-29T04:48:36;17.50;99.90
12841;DHT22;6487;48.626;12.486;2023-07-29T04:51:04;17.50;99.90
12841;DHT22;6487;48.626;12.486;2023-07-29T04:53:33;17.60;99.90
12841;DHT22;6487;48.626;12.486;2023-07-29T04:56:03;17.60;99.90
12841;DHT22;6487;48.626;12.486;2023-07-29T04:58:33;17.60;99.90
12841;DHT22;6487;48.626;12.486;2023-07-29T05:01:02;17.70;99.90
12841;DHT22;6487;48.626;12.486;2023-07-29T05:03:31;17.70;99.90
12841;DHT22;6487;48.626;12.486;2023-07-29T05:05:59;17.70;99.90
12841;DHT22;6487;48.626;12.486;2023-07-29T05:08:31;17.70;99.90
12841;DHT22;6487;48.626;12.486;2023-07-29T05:10:59;17.80;99.90
12841;DHT22;6487;48.626;12.486;2023-07-29T05:13:27;17.80;99.90
12841;DHT22;6487;48.626;12.486;2023-07-29T05:15:57;17.90;99.90
12841;DHT22;6487;48.626;12.486;2023-07-29T05:18:26;17.90;99.90
12841;DHT22;6487;48.626;12.486;2023-07-29T05:20:54;17.90;99.90
12841;DHT22;6487;48.626;12.486;2023-07-29T05:23:23;18.00;99.90
12841;DHT22;6487;48.626;12.486;2023-07-29T05:25:52;18.00;99.90
12841;DHT22;6487;48.626;12.486;2023-07-29T05:28:20;18.10;99.90
12841;DHT22;6487;48.626;12.486;2023-07-29T05:30:48;18.20;99.90
12841;DHT22;6487;48.626;12.486;2023-07-29T05:33:21;18.30;99.90
12841;DHT22;6487;48.626;12.486;2023-07-29T05:35:52;18.40;99.90
12841;DHT22;6487;48.626;12.486;2023-07-29T05:38:21;18.50;99.90
12841;DHT22;6487;48.626;12.486;2023-07-29T05:40:49;18.60;99.90
12841;DHT22;6487;48.626;12.486;2023-07-29T05:43:17;18.70;99.90
12841;DHT22;6487;48.626;12.486;2023-07-29T05:45:46;18.70;99.90
12841;DHT22;6487;48.626;12.486;2023-07-29T05:48:14;18.80;99.90
12841;DHT22;6487;48.626;12.486;2023-07-29T05:50:44;18.80;99.90
12841;DHT22;6487;48.626;12.486;2023-07-29T05:53:12;18.80;99.90
12841;DHT22;6487;48.626;12.486;2023-07-29T05:55:42;18.70;99.90
12841;DHT22;6487;48.626;12.486;2023-07-29T05:58:10;18.70;99.90
12841;DHT22;6487;48.626;12.486;2023-07-29T06:00:38;18.70;99.90
12841;DHT22;6487;48.626;12.486;2023-07-29T06:03:07;18.60;99.90
12841;DHT22;6487;48.626;12.486;2023-07-29T06:05:35;18.60;99.90
12841;DHT22;6487;48.626;12.486;2023-07-29T06:08:06;18.70;99.90
12841;DHT22;6487;48.626;12.486;2023-07-29T06:10:35;18.90;99.90
12841;DHT22;6487;48.626;12.486;2023-07-29T06:13:03;19.10;99.90
12841;DHT22;6487;48.626;12.486;2023-07-29T06:15:32;19.10;99.90
12841;DHT22;6487;48.626;12.486;2023-07-29T06:18:01;19.00;99.90
12841;DHT22;6487;48.626;12.486;2023-07-29T06:20:30;19.20;99.90
12841;DHT22;6487;48.626;12.486;2023-07-29T06:22:59;19.40;99.90
12841;DHT22;6487;48.626;12.486;2023-07-29T06:25:28;19.60;99.90
12841;DHT22;6487;48.626;12.486;2023-07-29T06:27:57;19.80;99.90
12841;DHT22;6487;48.626;12.486;2023-07-29T06:30:25;19.90;99.90
12841;DHT22;6487;48.626;12.486;2023-07-29T06:32:54;19.70;99.90
12841;DHT22;6487;48.626;12.486;2023-07-29T06:35:23;19.80;99.90
12841;DHT22;6487;48.626;12.486;2023-07-29T06:37:54;19.70;99.90
12841;DHT22;6487;48.626;12.486;2023-07-29T06:40:22;19.90;99.90
12841;DHT22;6487;48.626;12.486;2023-07-29T06:42:52;20.00;99.90
12841;DHT22;6487;48.626;12.486;2023-07-29T06:45:21;20.00;99.90
12841;DHT22;6487;48.626;12.486;2023-07-29T06:47:50;20.20;99.90
12841;DHT22;6487;48.626;12.486;2023-07-29T06:50:18;20.30;99.90
12841;DHT22;6487;48.626;12.486;2023-07-29T06:52:49;20.50;99.90
12841;DHT22;6487;48.626;12.486;2023-07-29T06:55:17;20.50;99.90
12841;DHT22;6487;48.626;12.486;2023-07-29T06:57:46;20.70;99.90
12841;DHT22;6487;48.626;12.486;2023-07-29T07:00:16;20.70;99.90
12841;DHT22;6487;48.626;12.486;2023-07-29T07:02:44;20.70;99.90
12841;DHT22;6487;48.626;12.486;2023-07-29T07:05:13;20.90;99.90
12841;DHT22;6487;48.626;12.486;2023-07-29T07:07:41;20.90;99.90
12841;DHT22;6487;48.626;12.486;2023-07-29T07:10:10;20.80;99.90
12841;DHT22;6487;48.626;12.486;2023-07-29T07:12:41;20.90;99.90
12841;DHT22;6487;48.626;12.486;2023-07-29T07:15:12;21.00;99.90
12841;DHT22;6487;48.626;12.486;2023-07-29T07:17:42;21.00;99.90
12841;DHT22;6487;48.626;12.486;2023-07-29T07:20:11;21.00;99.90
12841;DHT22;6487;48.626;12.486;2023-07-29T07:22:40;21.10;99.90
12841;DHT22;6487;48.626;12.486;2023-07-29T07:25:08;21.20;99.90
12841;DHT22;6487;48.626;12.486;2023-07-29T07:27:37;21.20;99.90
12841;DHT22;6487;48.626;12.486;2023-07-29T07:30:06;21.10;99.90
12841;DHT22;6487;48.626;12.486;2023-07-29T07:32:35;21.20;99.90
12841;DHT22;6487;48.626;12.486;2023-07-29T07:35:06;21.30;99.90
12841;DHT22;6487;48.626;12.486;2023-07-29T07:37:38;21.30;99.90
12841;DHT22;6487;48.626;12.486;2023-07-29T07:40:07;21.20;99.90
12841;DHT22;6487;48.626;12.486;2023-07-29T07:42:37;21.30;99.90
12841;DHT22;6487;48.626;12.486;2023-07-29T07:45:06;21.30;99.90
12841;DHT22;6487;48.626;12.486;2023-07-29T07:47:37;21.40;99.90
12841;DHT22;6487;48.626;12.486;2023-07-29T07:50:08;21.50;99.90
12841;DHT22;6487;48.626;12.486;2023-07-29T07:52:37;21.30;99.90
12841;DHT22;6487;48.626;12.486;2023-07-29T07:55:05;21.20;99.90
12841;DHT22;6487;48.626;12.486;2023-07-29T07:57:38;21.30;99.90
12841;DHT22;6487;48.626;12.486;2023-07-29T08:00:07;21.20;99.90
12841;DHT22;6487;48.626;12.486;2023-07-29T08:02:37;21.20;99.90
12841;DHT22;6487;48.626;12.486;2023-07-29T08:05:07;21.30;99.90
12841;DHT22;6487;48.626;12.486;2023-07-29T08:07:36;21.20;99.90
12841;DHT22;6487;48.626;12.486;2023-07-29T08:10:07;21.20;99.90
12841;DHT22;6487;48.626;12.486;2023-07-29T08:12:36;21.30;99.90
12841;DHT22;6487;48.626;12.486;2023-07-29T08:15:05;21.00;99.90
12841;DHT22;6487;48.626;12.486;2023-07-29T08:17:34;21.00;99.90
12841;DHT22;6487;48.626;12.486;2023-07-29T08:20:10;20.90;99.90
12841;DHT22;6487;48.626;12.486;2023-07-29T08:22:39;21.00;99.90
12841;DHT22;6487;48.626;12.486;2023-07-29T08:25:08;21.10;99.90
12841;DHT22;6487;48.626;12.486;2023-07-29T08:27:37;21.20;99.90
12841;DHT22;6487;48.626;12.486;2023-07-29T08:30:06;21.20;99.90
12841;DHT22;6487;48.626;12.486;2023-07-29T08:32:36;20.90;99.90
12841;DHT22;6487;48.626;12.486;2023-07-29T08:35:05;20.70;99.90
12841;DHT22;6487;48.626;12.486;2023-07-29T08:37:35;20.70;99.90
12841;DHT22;6487;48.626;12.486;2023-07-29T08:40:04;20.40;99.90
12841;DHT22;6487;48.626;12.486;2023-07-29T08:42:34;20.50;99.90
12841;DHT22;6487;48.626;12.486;2023-07-29T08:45:07;20.50;99.90
12841;DHT22;6487;48.626;12.486;2023-07-29T08:47:36;20.70;99.90
12841;DHT22;6487;48.626;12.486;2023-07-29T08:50:05;20.70;99.90
12841;DHT22;6487;48.626;12.486;2023-07-29T08:52:36;20.80;99.90
12841;DHT22;6487;48.626;12.486;2023-07-29T08:55:06;20.90;99.90
12841;DHT22;6487;48.626;12.486;2023-07-29T08:57:35;21.00;99.90
12841;DHT22;6487;48.626;12.486;2023-07-29T09:00:05;21.10;99.90
12841;DHT22;6487;48.626;12.486;2023-07-29T09:02:35;21.10;99.90
12841;DHT22;6487;48.626;12.486;2023-07-29T09:05:05;21.20;99.90
12841;DHT22;6487;48.626;12.486;2023-07-29T09:07:35;21.20;99.90
12841;DHT22;6487;48.626;12.486;2023-07-29T09:10:08;21.20;99.90
12841;DHT22;6487;48.626;12.486;2023-07-29T09:12:37;21.20;99.90
12841;DHT22;6487;48.626;12.486;2023-07-29T09:15:06;21.10;99.90
12841;DHT22;6487;48.626;12.486;2023-07-29T09:17:36;20.90;99.90
12841;DHT22;6487;48.626;12.486;2023-07-29T09:20:10;21.00;99.90
12841;DHT22;6487;48.626;12.486;2023-07-29T09:22:40;21.10;99.90
12841;DHT22;6487;48.626;12.486;2023-07-29T09:25:12;21.10;99.90
12841;DHT22;6487;48.626;12.486;2023-07-29T09:27:43;21.10;99.90
12841;DHT22;6487;48.626;12.486;2023-07-29T09:30:15;21.20;99.90
12841;DHT22;6487;48.626;12.486;2023-07-29T09:32:44;21.20;99.90
12841;DHT22;6487;48.626;12.486;2023-07-29T09:35:13;21.30;99.90
12841;DHT22;6487;48.626;12.486;2023-07-29T09:37:43;21.20;99.90
12841;DHT22;6487;48.626;12.486;2023-07-29T09:40:14;21.10;99.90
12841;DHT22;6487;48.626;12.486;2023-07-29T09:42:48;21.00;99.90
12841;DHT22;6487;48.626;12.486;2023-07-29T09:45:22;21.20;99.90
12841;DHT22;6487;48.626;12.486;2023-07-29T09:47:52;21.40;99.90
12841;DHT22;6487;48.626;12.486;2023-07-29T09:50:23;21.40;99.90
12841;DHT22;6487;48.626;12.486;2023-07-29T09:52:55;21.50;99.90
12841;DHT22;6487;48.626;12.486;2023-07-29T09:55:26;21.50;99.90
12841;DHT22;6487;48.626;12.486;2023-07-29T09:57:57;21.50;99.90
12841;DHT22;6487;48.626;12.486;2023-07-29T10:00:29;21.50;99.90
12841;DHT22;6487;48.626;12.486;2023-07-29T10:02:59;21.50;99.90
12841;DHT22;6487;48.626;12.486;2023-07-29T10:05:30;21.70;99.90
12841;DHT22;6487;48.626;12.486;2023-07-29T10:08:00;21.70;99.90
12841;DHT22;6487;48.626;12.486;2023-07-29T10:10:29;22.10;99.90
12841;DHT22;6487;48.626;12.486;2023-07-29T10:13:05;22.40;99.90
12841;DHT22;6487;48.626;12.486;2023-07-29T10:15:33;22.60;99.90
12841;DHT22;6487;48.626;12.486;2023-07-29T10:18:03;22.60;99.90
12841;DHT22;6487;48.626;12.486;2023-07-29T10:20:32;23.00;99.90
12841;DHT22;6487;48.626;12.486;2023-07-29T10:23:07;23.30;99.90
12841;DHT22;6487;48.626;12.486;2023-07-29T10:25:38;23.30;99.90
12841;DHT22;6487;48.626;12.486;2023-07-29T10:28:10;23.50;99.90
12841;DHT22;6487;48.626;12.486;2023-07-29T10:30:40;23.70;99.90
12841;DHT22;6487;48.626;12.486;2023-07-29T10:33:10;24.00;99.90
12841;DHT22;6487;48.626;12.486;2023-07-29T10:35:39;24.30;99.90
12841;DHT22;6487;48.626;12.486;2023-07-29T10:38:09;24.40;99.90
12841;DHT22;6487;48.626;12.486;2023-07-29T10:40:46;24.50;99.90
12841;DHT22;6487;48.626;12.486;2023-07-29T10:43:19;24.40;99.90
12841;DHT22;6487;48.626;12.486;2023-07-29T10:45:53;24.40;99.90
12841;DHT22;6487;48.626;12.486;2023-07-29T10:48:42;24.60;99.90
12841;DHT22;6487;48.626;12.486;2023-07-29T10:51:25;24.60;99.90
12841;DHT22;6487;48.626;12.486;2023-07-29T10:53:59;24.60;99.90
12841;DHT22;6487;48.626;12.486;2023-07-29T10:56:30;24.60;99.90
12841;DHT22;6487;48.626;12.486;2023-07-29T11:01:59;24.50;99.90
12841;DHT22;6487;48.626;12.486;2023-07-29T11:04:30;24.40;99.90
12841;DHT22;6487;48.626;12.486;2023-07-29T11:07:21;24.40;99.90
12841;DHT22;6487;48.626;12.486;2023-07-29T11:10:02;24.30;99.90
12841;DHT22;6487;48.626;12.486;2023-07-29T11:12:39;24.20;99.90
12841;DHT22;6487;48.626;12.486;2023-07-29T11:15:22;24.10;99.90
12841;DHT22;6487;48.626;12.486;2023-07-29T11:17:53;24.00;99.90
12841;DHT22;6487;48.626;12.486;2023-07-29T11:20:24;24.10;99.90
12841;DHT22;6487;48.626;12.486;2023-07-29T11:22:56;24.10;99.90
12841;DHT22;6487;48.626;12.486;2023-07-29T11:25:29;24.00;99.90
12841;DHT22;6487;48.626;12.486;2023-07-29T11:28:00;23.90;99.90
12841;DHT22;6487;48.626;12.486;2023-07-29T11:30:33;23.80;99.90
12841;DHT22;6487;48.626;12.486;2023-07-29T11:33:08;23.80;99.90
12841;DHT22;6487;48.626;12.486;2023-07-29T11:35:38;23.80;99.90
12841;DHT22;6487;48.626;12.486;2023-07-29T11:38:06;23.70;99.90
12841;DHT22;6487;48.626;12.486;2023-07-29T11:40:36;23.60;99.90
12841;DHT22;6487;48.626;12.486;2023-07-29T11:43:05;23.60;99.90
12841;DHT22;6487;48.626;12.486;2023-07-29T11:45:33;23.50;99.90
12841;DHT22;6487;48.626;12.486;2023-07-29T11:48:16;23.40;99.90
12841;DHT22;6487;48.626;12.486;2023-07-29T11:50:45;23.40;99.90
12841;DHT22;6487;48.626;12.486;2023-07-29T11:53:14;23.30;99.90
12841;DHT22;6487;48.626;12.486;2023-07-29T11:55:44;23.30;99.90
12841;DHT22;6487;48.626;12.486;2023-07-29T11:58:18;23.30;99.90
12841;DHT22;6487;48.626;12.486;2023-07-29T12:00:47;23.30;99.90
12841;DHT22;6487;48.626;12.486;2023-07-29T12:03:17;23.20;99.90
12841;DHT22;6487;48.626;12.486;2023-07-29T12:05:46;23.10;99.90
12841;DHT22;6487;48.626;12.486;2023-07-29T12:08:16;23.10;99.90
12841;DHT22;6487;48.626;12.486;2023-07-29T12:10:46;23.00;99.90
12841;DHT22;6487;48.626;12.486;2023-07-29T12:13:15;22.90;99.90
12841;DHT22;6487;48.626;12.486;2023-07-29T12:15:43;23.00;99.90
12841;DHT22;6487;48.626;12.486;2023-07-29T12:18:12;22.90;99.90
12841;DHT22;6487;48.626;12.486;2023-07-29T12:20:42;22.80;99.90
12841;DHT22;6487;48.626;12.486;2023-07-29T12:23:11;22.90;99.90
12841;DHT22;6487;48.626;12.486;2023-07-29T12:25:40;22.70;99.90
12841;DHT22;6487;48.626;12.486;2023-07-29T12:28:10;22.50;99.90
12841;DHT22;6487;48.626;12.486;2023-07-29T12:30:41;22.50;99.90
12841;DHT22;6487;48.626;12.486;2023-07-29T12:33:10;22.50;99.90
12841;DHT22;6487;48.626;12.486;2023-07-29T12:35:38;22.70;99.90
12841;DHT22;6487;48.626;12.486;2023-07-29T12:38:07;22.80;99.90
12841;DHT22;6487;48.626;12.486;2023-07-29T12:40:38;23.20;99.90
12841;DHT22;6487;48.626;12.486;2023-07-29T12:43:10;23.30;99.90
12841;DHT22;6487;48.626;12.486;2023-07-29T12:45:38;23.40;99.90
12841;DHT22;6487;48.626;12.486;2023-07-29T12:48:08;23.60;99.90
12841;DHT22;6487;48.626;12.486;2023-07-29T12:50:37;23.90;99.90
12841;DHT22;6487;48.626;12.486;2023-07-29T12:53:07;24.10;99.90
12841;DHT22;6487;48.626;12.486;2023-07-29T12:55:37;24.30;99.90
12841;DHT22;6487;48.626;12.486;2023-07-29T12:58:19;24.60;99.90
12841;DHT22;6487;48.626;12.486;2023-07-29T13:00:47;24.80;99.90
12841;DHT22;6487;48.626;12.486;2023-07-29T13:03:16;25.00;99.90
12841;DHT22;6487;48.626;12.486;2023-07-29T13:05:45;25.20;99.90
12841;DHT22;6487;48.626;12.486;2023-07-29T13:08:13;25.40;99.90
12841;DHT22;6487;48.626;12.486;2023-07-29T13:10:42;25.40;99.90
12841;DHT22;6487;48.626;12.486;2023-07-29T13:13:13;25.60;99.90
12841;DHT22;6487;48.626;12.486;2023-07-29T13:15:41;25.70;99.90
12841;DHT22;6487;48.626;12.486;2023-07-29T13:18:10;25.90;99.90
12841;DHT22;6487;48.626;12.486;2023-07-29T13:20:38;26.10;99.90
12841;DHT22;6487;48.626;12.486;2023-07-29T13:23:07;26.30;99.90
12841;DHT22;6487;48.626;12.486;2023-07-29T13:25:36;26.20;99.90
12841;DHT22;6487;48.626;12.486;2023-07-29T13:28:04;26.30;99.90
12841;DHT22;6487;48.626;12.486;2023-07-29T13:30:35;26.40;99.90
12841;DHT22;6487;48.626;12.486;2023-07-29T13:33:03;26.60;99.90
12841;DHT22;6487;48.626;12.486;2023-07-29T13:35:34;26.60;99.90
12841;DHT22;6487;48.626;12.486;2023-07-29T13:38:02;26.60;99.90
12841;DHT22;6487;48.626;12.486;2023-07-29T13:40:31;26.70;99.90
12841;DHT22;6487;48.626;12.486;2023-07-29T13:43:06;26.70;99.90
12841;DHT22;6487;48.626;12.486;2023-07-29T13:45:39;26.70;99.90
12841;DHT22;6487;48.626;12.486;2023-07-29T13:48:08;26.50;99.90
12841;DHT22;6487;48.626;12.486;2023-07-29T13:50:36;26.40;99.90
12841;DHT22;6487;48.626;12.486;2023-07-29T13:53:05;26.30;99.90
12841;DHT22;6487;48.626;12.486;2023-07-29T13:55:34;26.10;99.90
12841;DHT22;6487;48.626;12.486;2023-07-29T13:58:03;26.20;99.90
12841;DHT22;6487;48.626;12.486;2023-07-29T14:00:34;26.00;99.90
12841;DHT22;6487;48.626;12.486;2023-07-29T14:03:04;25.80;99.90
12841;DHT22;6487;48.626;12.486;2023-07-29T14:05:33;26.00;99.90
12841;DHT22;6487;48.626;12.486;2023-07-29T14:08:04;25.90;99.90
12841;DHT22;6487;48.626;12.486;2023-07-29T14:10:33;25.90;99.90
12841;DHT22;6487;48.626;12.486;2023-07-29T14:13:01;26.10;99.90
12841;DHT22;6487;48.626;12.486;2023-07-29T14:15:30;26.40;99.90
12841;DHT22;6487;48.626;12.486;2023-07-29T14:17:59;26.30;99.30
12841;DHT22;6487;48.626;12.486;2023-07-29T14:20:31;26.20;98.70
12841;DHT22;6487;48.626;12.486;2023-07-29T14:23:02;26.10;99.90
12841;DHT22;6487;48.626;12.486;2023-07-29T14:25:33;26.10;99.60
12841;DHT22;6487;48.626;12.486;2023-07-29T14:28:01;26.20;99.90
12841;DHT22;6487;48.626;12.486;2023-07-29T14:30:30;26.10;99.10
12841;DHT22;6487;48.626;12.486;2023-07-29T14:32:59;26.30;99.90
12841;DHT22;6487;48.626;12.486;2023-07-29T14:35:29;26.30;99.90
12841;DHT22;6487;48.626;12.486;2023-07-29T14:37:58;26.40;99.80
12841;DHT22;6487;48.626;12.486;2023-07-29T14:40:26;26.30;99.90
12841;DHT22;6487;48.626;12.486;2023-07-29T14:42:55;26.30;99.90
12841;DHT22;6487;48.626;12.486;2023-07-29T14:45:24;26.30;99.90
12841;DHT22;6487;48.626;12.486;2023-07-29T14:47:53;26.30;99.90
12841;DHT22;6487;48.626;12.486;2023-07-29T14:50:27;26.20;99.90
12841;DHT22;6487;48.626;12.486;2023-07-29T14:52:57;26.20;99.90
12841;DHT22;6487;48.626;12.486;2023-07-29T14:55:26;26.10;99.90
12841;DHT22;6487;48.626;12.486;2023-07-29T14:57:54;26.10;99.90
12841;DHT22;6487;48.626;12.486;2023-07-29T15:00:23;26.10;99.90
12841;DHT22;6487;48.626;12.486;2023-07-29T15:02:52;25.80;99.90
12841;DHT22;6487;48.626;12.486;2023-07-29T15:05:20;26.00;99.90
12841;DHT22;6487;48.626;12.486;2023-07-29T15:07:52;26.10;99.90
12841;DHT22;6487;48.626;12.486;2023-07-29T15:10:22;26.10;99.90
12841;DHT22;6487;48.626;12.486;2023-07-29T15:12:50;26.20;99.90
12841;DHT22;6487;48.626;12.486;2023-07-29T15:15:19;26.10;99.90
12841;DHT22;6487;48.626;12.486;2023-07-29T15:17:48;26.20;99.90
12841;DHT22;6487;48.626;12.486;2023-07-29T15:20:20;26.40;99.90
12841;DHT22;6487;48.626;12.486;2023-07-29T15:22:48;26.50;99.90
12841;DHT22;6487;48.626;12.486;2023-07-29T15:25:17;26.50;99.90
12841;DHT22;6487;48.626;12.486;2023-07-29T15:27:47;26.40;99.90
12841;DHT22;6487;48.626;12.486;2023-07-29T15:30:15;26.40;99.90
12841;DHT22;6487;48.626;12.486;2023-07-29T15:32:45;26.50;99.90
12841;DHT22;6487;48.626;12.486;2023-07-29T15:35:13;26.40;99.90
12841;DHT22;6487;48.626;12.486;2023-07-29T15:37:42;26.30;99.90
12841;DHT22;6487;48.626;12.486;2023-07-29T15:40:14;26.40;99.90
12841;DHT22;6487;48.626;12.486;2023-07-29T15:42:43;26.50;99.90
12841;DHT22;6487;48.626;12.486;2023-07-29T15:45:13;26.40;99.90
12841;DHT22;6487;48.626;12.486;2023-07-29T15:47:43;26.40;99.90
12841;DHT22;6487;48.626;12.486;2023-07-29T15:50:11;26.30;99.90